Terminal Aerodrome Forecast
Issued by NWS Charleston, WV

Current Version | Previous Version | Graphics & Text | Print | Product List | Glossary On
Versions: 1 2 3 4 5 6 7 8 9 10 11 12 13 14 15 16 17 18 19 20 21 22 23 24 25 26 27 28 29 30 31
000
FTUS41 KRLX 250200 AAA
TAFCRW
TAF AMD
KCRW 250241Z 2503/2524 00000KT P6SM BKN250
     FM250400 00000KT P6SM BKN110
     FM251400 14005KT 6SM -SHRA OVC040
     FM251700 11006KT 3SM SHRA BR OVC025
     FM251900 09007KT 5SM SHRA BR BKN020
     FM252200 12008KT P6SM BKN025=

USA.gov is the U.S. government's official web portal to all federal, state and local government web resources and services.